sensor_id;sensor_type;location;lat;lon;timestamp;pressure;altitude;pressure_sealevel;temperature;humidity
70781;BME280;59514;48.810;2.134;2023-05-01T00:02:09;100407.91;;;10.35;89.96
70781;BME280;59514;48.810;2.134;2023-05-01T00:04:34;100408.19;;;10.27;90.98
70781;BME280;59514;48.810;2.134;2023-05-01T00:07:00;100404.75;;;10.20;92.35
70781;BME280;59514;48.810;2.134;2023-05-01T00:09:28;100404.00;;;10.13;91.75
70781;BME280;59514;48.810;2.134;2023-05-01T00:11:53;100400.72;;;10.11;89.57
70781;BME280;59514;48.810;2.134;2023-05-01T00:14:19;100399.25;;;10.08;90.25
70781;BME280;59514;48.810;2.134;2023-05-01T00:16:44;100396.47;;;9.97;90.33
70781;BME280;59514;48.810;2.134;2023-05-01T00:19:11;100400.41;;;9.94;90.26
70781;BME280;59514;48.810;2.134;2023-05-01T00:21:36;100393.03;;;9.90;91.39
70781;BME280;59514;48.810;2.134;2023-05-01T00:24:02;100396.75;;;9.89;91.91
70781;BME280;59514;48.810;2.134;2023-05-01T00:26:27;100394.06;;;9.89;91.94
70781;BME280;59514;48.810;2.134;2023-05-01T00:28:55;100391.84;;;9.86;92.55
70781;BME280;59514;48.810;2.134;2023-05-01T00:31:23;100384.44;;;9.81;92.98
70781;BME280;59514;48.810;2.134;2023-05-01T00:33:48;100385.88;;;9.84;91.07
70781;BME280;59514;48.810;2.134;2023-05-01T00:36:13;100388.09;;;9.87;91.66
70781;BME280;59514;48.810;2.134;2023-05-01T00:38:39;100380.94;;;9.81;91.65
70781;BME280;59514;48.810;2.134;2023-05-01T00:41:04;100374.56;;;9.82;91.53
70781;BME280;59514;48.810;2.134;2023-05-01T00:43:29;100380.75;;;9.82;90.77
70781;BME280;59514;48.810;2.134;2023-05-01T00:45:55;100360.78;;;9.78;92.54
70781;BME280;59514;48.810;2.134;2023-05-01T00:48:20;100372.56;;;9.71;94.01
70781;BME280;59514;48.810;2.134;2023-05-01T00:50:46;100370.16;;;9.63;94.03
70781;BME280;59514;48.810;2.134;2023-05-01T00:53:13;100364.38;;;9.66;93.07
70781;BME280;59514;48.810;2.134;2023-05-01T00:55:40;100359.44;;;9.63;93.60
70781;BME280;59514;48.810;2.134;2023-05-01T00:58:06;100363.59;;;9.58;93.50
70781;BME280;59514;48.810;2.134;2023-05-01T01:00:32;100357.44;;;9.58;93.86
70781;BME280;59514;48.810;2.134;2023-05-01T01:02:57;100357.84;;;9.55;95.06
70781;BME280;59514;48.810;2.134;2023-05-01T01:05:24;100346.72;;;9.58;95.14
70781;BME280;59514;48.810;2.134;2023-05-01T01:08:04;100343.81;;;9.60;96.66
70781;BME280;59514;48.810;2.134;2023-05-01T01:10:53;100349.59;;;9.56;93.74
70781;BME280;59514;48.810;2.134;2023-05-01T01:16:22;100347.91;;;9.62;96.86
70781;BME280;59514;48.810;2.134;2023-05-01T01:19:13;100343.84;;;9.53;94.05
70781;BME280;59514;48.810;2.134;2023-05-01T01:21:45;100349.84;;;9.48;94.36
70781;BME280;59514;48.810;2.134;2023-05-01T01:33:09;100338.41;;;9.10;99.18
70781;BME280;59514;48.810;2.134;2023-05-01T01:35:45;100340.28;;;9.03;98.41
70781;BME280;59514;48.810;2.134;2023-05-01T01:38:16;100344.50;;;8.93;100.00
70781;BME280;59514;48.810;2.134;2023-05-01T01:40:54;100336.50;;;8.86;100.00
70781;BME280;59514;48.810;2.134;2023-05-01T01:43:22;100341.91;;;8.73;100.00
70781;BME280;59514;48.810;2.134;2023-05-01T01:45:52;100337.16;;;8.75;100.00
70781;BME280;59514;48.810;2.134;2023-05-01T01:48:25;100338.63;;;8.71;100.00
70781;BME280;59514;48.810;2.134;2023-05-01T01:50:56;100334.13;;;8.65;100.00
70781;BME280;59514;48.810;2.134;2023-05-01T01:53:24;100335.56;;;8.67;100.00
70781;BME280;59514;48.810;2.134;2023-05-01T01:55:51;100339.06;;;8.68;100.00
70781;BME280;59514;48.810;2.134;2023-05-01T01:58:20;100334.97;;;8.59;100.00
70781;BME280;59514;48.810;2.134;2023-05-01T02:00:51;100334.97;;;8.59;100.00
70781;BME280;59514;48.810;2.134;2023-05-01T02:03:18;100336.38;;;8.68;100.00
70781;BME280;59514;48.810;2.134;2023-05-01T02:05:46;100336.13;;;8.76;100.00
70781;BME280;59514;48.810;2.134;2023-05-01T02:08:13;100337.34;;;8.80;100.00
70781;BME280;59514;48.810;2.134;2023-05-01T02:10:41;100342.88;;;8.85;100.00
70781;BME280;59514;48.810;2.134;2023-05-01T02:13:08;100340.25;;;8.79;100.00
70781;BME280;59514;48.810;2.134;2023-05-01T02:15:36;100341.91;;;8.73;100.00
70781;BME280;59514;48.810;2.134;2023-05-01T02:18:04;100340.69;;;8.69;100.00
70781;BME280;59514;48.810;2.134;2023-05-01T02:20:30;100336.41;;;8.61;100.00
70781;BME280;59514;48.810;2.134;2023-05-01T02:22:56;100347.53;;;8.58;100.00
70781;BME280;59514;48.810;2.134;2023-05-01T02:25:22;100341.59;;;8.50;100.00
70781;BME280;59514;48.810;2.134;2023-05-01T02:27:56;100335.88;;;8.46;100.00
70781;BME280;59514;48.810;2.134;2023-05-01T02:30:24;100340.84;;;8.36;100.00
70781;BME280;59514;48.810;2.134;2023-05-01T02:32:50;100342.28;;;8.32;100.00
70781;BME280;59514;48.810;2.134;2023-05-01T02:35:15;100340.25;;;8.28;100.00
70781;BME280;59514;48.810;2.134;2023-05-01T02:37:41;100345.78;;;8.33;100.00
70781;BME280;59514;48.810;2.134;2023-05-01T02:40:07;100338.78;;;8.32;100.00
70781;BME280;59514;48.810;2.134;2023-05-01T02:42:35;100348.03;;;8.29;100.00
70781;BME280;59514;48.810;2.134;2023-05-01T02:45:09;100342.09;;;8.27;100.00
70781;BME280;59514;48.810;2.134;2023-05-01T02:47:41;100340.84;;;8.23;100.00
70781;BME280;59514;48.810;2.134;2023-05-01T02:50:08;100338.81;;;8.19;100.00
70781;BME280;59514;48.810;2.134;2023-05-01T02:52:35;100346.63;;;8.14;100.00
70781;BME280;59514;48.810;2.134;2023-05-01T02:55:01;100340.03;;;8.10;100.00
70781;BME280;59514;48.810;2.134;2023-05-01T02:57:27;100340.88;;;8.17;100.00
70781;BME280;59514;48.810;2.134;2023-05-01T02:59:53;100346.22;;;8.17;100.00
70781;BME280;59514;48.810;2.134;2023-05-01T03:02:18;100338.81;;;8.19;100.00
70781;BME280;59514;48.810;2.134;2023-05-01T03:04:43;100343.72;;;8.22;100.00
70781;BME280;59514;48.810;2.134;2023-05-01T03:07:09;100344.16;;;8.19;100.00
70781;BME280;59514;48.810;2.134;2023-05-01T03:09:34;100346.22;;;8.17;100.00
70781;BME280;59514;48.810;2.134;2023-05-01T03:11:59;100341.09;;;8.15;100.00
70781;BME280;59514;48.810;2.134;2023-05-01T03:14:25;100344.56;;;8.16;100.00
70781;BME280;59514;48.810;2.134;2023-05-01T03:16:52;100346.22;;;8.17;100.00
70781;BME280;59514;48.810;2.134;2023-05-01T03:19:17;100347.00;;;8.17;100.00
70781;BME280;59514;48.810;2.134;2023-05-01T03:21:43;100348.06;;;8.23;100.00
70781;BME280;59514;48.810;2.134;2023-05-01T03:24:08;100344.97;;;8.26;100.00
70781;BME280;59514;48.810;2.134;2023-05-01T03:26:34;100345.19;;;8.31;100.00
70781;BME280;59514;48.810;2.134;2023-05-01T03:28:59;100343.72;;;8.35;100.00
70781;BME280;59514;48.810;2.134;2023-05-01T03:31:24;100342.06;;;8.34;100.00
70781;BME280;59514;48.810;2.134;2023-05-01T03:33:50;100348.25;;;8.41;100.00
70781;BME280;59514;48.810;2.134;2023-05-01T03:36:15;100344.28;;;8.43;100.00
70781;BME280;59514;48.810;2.134;2023-05-01T03:38:40;100344.91;;;8.45;100.00
70781;BME280;59514;48.810;2.134;2023-05-01T03:41:06;100344.28;;;8.50;100.00
70781;BME280;59514;48.810;2.134;2023-05-01T03:43:31;100339.94;;;8.55;100.00
70781;BME280;59514;48.810;2.134;2023-05-01T03:45:57;100340.31;;;8.59;100.00
70781;BME280;59514;48.810;2.134;2023-05-01T03:48:22;100347.50;;;8.65;100.00
70781;BME280;59514;48.810;2.134;2023-05-01T03:50:49;100342.75;;;8.67;100.00
70781;BME280;59514;48.810;2.134;2023-05-01T03:53:14;100347.25;;;8.73;100.00
70781;BME280;59514;48.810;2.134;2023-05-01T03:55:40;100344.16;;;8.76;100.00
70781;BME280;59514;48.810;2.134;2023-05-01T03:58:06;100338.19;;;8.81;100.00
70781;BME280;59514;48.810;2.134;2023-05-01T04:00:32;100342.25;;;8.83;100.00
70781;BME280;59514;48.810;2.134;2023-05-01T04:02:57;100336.50;;;8.86;100.00
70781;BME280;59514;48.810;2.134;2023-05-01T04:05:22;100341.38;;;8.96;100.00
70781;BME280;59514;48.810;2.134;2023-05-01T04:07:48;100346.69;;;9.02;100.00
70781;BME280;59514;48.810;2.134;2023-05-01T04:10:13;100342.13;;;9.03;100.00
70781;BME280;59514;48.810;2.134;2023-05-01T04:12:39;100344.78;;;9.09;100.00
70781;BME280;59514;48.810;2.134;2023-05-01T04:15:05;100354.06;;;9.07;100.00
70781;BME280;59514;48.810;2.134;2023-05-01T04:17:31;100352.22;;;9.07;100.00
70781;BME280;59514;48.810;2.134;2023-05-01T04:19:56;100353.44;;;9.11;100.00
70781;BME280;59514;48.810;2.134;2023-05-01T04:22:22;100350.16;;;9.09;100.00
70781;BME280;59514;48.810;2.134;2023-05-01T04:24:49;100354.03;;;9.13;100.00
70781;BME280;59514;48.810;2.134;2023-05-01T04:27:15;100351.72;;;9.17;100.00
70781;BME280;59514;48.810;2.134;2023-05-01T04:29:40;100353.63;;;9.16;100.00
70781;BME280;59514;48.810;2.134;2023-05-01T04:32:06;100349.47;;;9.20;100.00
70781;BME280;59514;48.810;2.134;2023-05-01T04:34:32;100345.34;;;9.18;100.00
70781;BME280;59514;48.810;2.134;2023-05-01T04:36:57;100351.97;;;9.15;100.00
70781;BME280;59514;48.810;2.134;2023-05-01T04:39:23;100352.66;;;9.04;100.00
70781;BME280;59514;48.810;2.134;2023-05-01T04:41:48;100352.00;;;9.09;100.00
70781;BME280;59514;48.810;2.134;2023-05-01T04:44:13;100358.56;;;9.13;100.00
70781;BME280;59514;48.810;2.134;2023-05-01T04:46:39;100356.72;;;9.13;100.00
70781;BME280;59514;48.810;2.134;2023-05-01T04:49:04;100361.91;;;9.08;100.00
70781;BME280;59514;48.810;2.134;2023-05-01T04:51:29;100366.81;;;9.11;100.00
70781;BME280;59514;48.810;2.134;2023-05-01T04:53:55;100362.28;;;9.12;100.00
70781;BME280;59514;48.810;2.134;2023-05-01T04:56:20;100360.00;;;9.15;100.00
70781;BME280;59514;48.810;2.134;2023-05-01T04:58:46;100363.28;;;9.17;100.00
70781;BME280;59514;48.810;2.134;2023-05-01T05:01:11;100362.25;;;9.18;100.00
70781;BME280;59514;48.810;2.134;2023-05-01T05:03:36;100361.44;;;9.18;100.00
70781;BME280;59514;48.810;2.134;2023-05-01T05:06:02;100370.91;;;9.20;100.00
70781;BME280;59514;48.810;2.134;2023-05-01T05:08:27;100367.16;;;9.21;100.00
70781;BME280;59514;48.810;2.134;2023-05-01T05:10:59;100373.75;;;9.25;100.00
70781;BME280;59514;48.810;2.134;2023-05-01T05:13:25;100369.59;;;9.29;100.00
70781;BME280;59514;48.810;2.134;2023-05-01T05:15:51;100381.97;;;9.30;100.00
70781;BME280;59514;48.810;2.134;2023-05-01T05:18:16;100377.84;;;9.28;100.00
70781;BME280;59514;48.810;2.134;2023-05-01T05:20:42;100377.03;;;9.27;100.00
70781;BME280;59514;48.810;2.134;2023-05-01T05:23:07;100389.56;;;9.33;100.00
70781;BME280;59514;48.810;2.134;2023-05-01T05:25:33;100383.19;;;9.34;100.00
70781;BME280;59514;48.810;2.134;2023-05-01T05:27:58;100379.19;;;9.43;100.00
70781;BME280;59514;48.810;2.134;2023-05-01T05:30:25;100381.63;;;9.45;100.00
70781;BME280;59514;48.810;2.134;2023-05-01T05:32:50;100382.00;;;9.48;100.00
70781;BME280;59514;48.810;2.134;2023-05-01T05:35:15;100379.34;;;9.48;100.00
70781;BME280;59514;48.810;2.134;2023-05-01T05:37:41;100383.63;;;9.56;100.00
70781;BME280;59514;48.810;2.134;2023-05-01T05:40:07;100389.19;;;9.54;100.00
70781;BME280;59514;48.810;2.134;2023-05-01T05:42:33;100385.22;;;9.64;100.00
70781;BME280;59514;48.810;2.134;2023-05-01T05:44:58;100385.38;;;9.69;100.00
70781;BME280;59514;48.810;2.134;2023-05-01T05:47:24;100389.84;;;9.75;100.00
70781;BME280;59514;48.810;2.134;2023-05-01T05:49:49;100385.28;;;9.82;100.00
70781;BME280;59514;48.810;2.134;2023-05-01T05:52:14;100384.81;;;9.85;100.00
70781;BME280;59514;48.810;2.134;2023-05-01T05:54:40;100371.63;;;9.83;100.00
70781;BME280;59514;48.810;2.134;2023-05-01T05:57:05;100377.09;;;9.95;100.00
70781;BME280;59514;48.810;2.134;2023-05-01T05:59:31;100372.78;;;9.94;100.00
70781;BME280;59514;48.810;2.134;2023-05-01T06:01:56;100379.97;;;10.00;100.00
70781;BME280;59514;48.810;2.134;2023-05-01T06:04:23;100380.31;;;10.03;100.00
70781;BME280;59514;48.810;2.134;2023-05-01T06:06:48;100380.47;;;10.08;100.00
70781;BME280;59514;48.810;2.134;2023-05-01T06:09:13;100379.84;;;10.13;100.00
70781;BME280;59514;48.810;2.134;2023-05-01T06:11:39;100386.28;;;10.05;100.00
70781;BME280;59514;48.810;2.134;2023-05-01T06:14:04;100384.44;;;10.06;100.00
70781;BME280;59514;48.810;2.134;2023-05-01T06:16:30;100385.50;;;9.98;100.00
70781;BME280;59514;48.810;2.134;2023-05-01T06:18:55;100387.41;;;9.98;100.00
70781;BME280;59514;48.810;2.134;2023-05-01T06:21:21;100389.03;;;9.99;100.00
70781;BME280;59514;48.810;2.134;2023-05-01T06:23:46;100384.88;;;10.03;100.00
70781;BME280;59514;48.810;2.134;2023-05-01T06:26:11;100380.31;;;10.03;100.00
70781;BME280;59514;48.810;2.134;2023-05-01T06:28:37;100388.75;;;10.07;100.00
70781;BME280;59514;48.810;2.134;2023-05-01T06:31:02;100391.19;;;10.08;100.00
70781;BME280;59514;48.810;2.134;2023-05-01T06:33:27;100391.63;;;10.12;100.00
70781;BME280;59514;48.810;2.134;2023-05-01T06:35:53;100399.44;;;10.13;100.00
70781;BME280;59514;48.810;2.134;2023-05-01T06:38:18;100390.75;;;10.18;100.00
70781;BME280;59514;48.810;2.134;2023-05-01T06:40:44;100389.25;;;10.22;100.00
70781;BME280;59514;48.810;2.134;2023-05-01T06:43:11;100392.69;;;10.29;100.00
70781;BME280;59514;48.810;2.134;2023-05-01T06:45:37;100392.16;;;10.38;100.00
70781;BME280;59514;48.810;2.134;2023-05-01T06:48:04;100393.59;;;10.41;100.00
70781;BME280;59514;48.810;2.134;2023-05-01T06:50:29;100390.84;;;10.48;100.00
70781;BME280;59514;48.810;2.134;2023-05-01T06:52:54;100396.88;;;10.61;100.00
70781;BME280;59514;48.810;2.134;2023-05-01T06:55:20;100394.91;;;10.68;100.00
70781;BME280;59514;48.810;2.134;2023-05-01T06:57:45;100394.31;;;10.84;100.00
70781;BME280;59514;48.810;2.134;2023-05-01T07:00:11;100403.72;;;10.93;100.00
70781;BME280;59514;48.810;2.134;2023-05-01T07:02:37;100402.84;;;10.81;100.00
70781;BME280;59514;48.810;2.134;2023-05-01T07:05:02;100404.75;;;10.92;100.00
70781;BME280;59514;48.810;2.134;2023-05-01T07:07:28;100407.28;;;11.05;100.00
70781;BME280;59514;48.810;2.134;2023-05-01T07:09:55;100403.69;;;11.11;100.00
70781;BME280;59514;48.810;2.134;2023-05-01T07:12:20;100418.50;;;11.14;100.00
70781;BME280;59514;48.810;2.134;2023-05-01T07:14:46;100420.72;;;11.05;100.00
70781;BME280;59514;48.810;2.134;2023-05-01T07:17:12;100418.69;;;11.01;100.00
70781;BME280;59514;48.810;2.134;2023-05-01T07:19:37;100422.88;;;10.97;100.00
70781;BME280;59514;48.810;2.134;2023-05-01T07:22:02;100434.88;;;10.94;100.00
70781;BME280;59514;48.810;2.134;2023-05-01T07:24:28;100426.81;;;11.12;100.00
70781;BME280;59514;48.810;2.134;2023-05-01T07:26:54;100431.41;;;11.23;100.00
70781;BME280;59514;48.810;2.134;2023-05-01T07:29:20;100430.03;;;11.33;100.00
70781;BME280;59514;48.810;2.134;2023-05-01T07:31:45;100428.97;;;11.34;98.79
70781;BME280;59514;48.810;2.134;2023-05-01T07:34:12;100436.72;;;11.42;98.85
70781;BME280;59514;48.810;2.134;2023-05-01T07:36:38;100428.94;;;11.22;96.64
70781;BME280;59514;48.810;2.134;2023-05-01T07:39:03;100428.72;;;11.53;96.06
70781;BME280;59514;48.810;2.134;2023-05-01T07:41:30;100428.22;;;11.86;92.28
70781;BME280;59514;48.810;2.134;2023-05-01T07:43:57;100426.47;;;11.91;91.29
70781;BME280;59514;48.810;2.134;2023-05-01T07:46:23;100432.19;;;11.83;93.51
70781;BME280;59514;48.810;2.134;2023-05-01T07:48:49;100428.72;;;11.83;92.79
70781;BME280;59514;48.810;2.134;2023-05-01T07:51:14;100437.81;;;11.82;93.67
70781;BME280;59514;48.810;2.134;2023-05-01T07:53:40;100436.09;;;11.99;93.28
70781;BME280;59514;48.810;2.134;2023-05-01T07:56:07;100436.31;;;12.09;93.03
70781;BME280;59514;48.810;2.134;2023-05-01T07:58:34;100436.09;;;12.10;94.27
70781;BME280;59514;48.810;2.134;2023-05-01T08:01:00;100435.88;;;12.00;94.63
70781;BME280;59514;48.810;2.134;2023-05-01T08:03:27;100436.78;;;12.06;96.00
70781;BME280;59514;48.810;2.134;2023-05-01T08:05:53;100433.84;;;11.96;95.08
70781;BME280;59514;48.810;2.134;2023-05-01T08:08:18;100424.75;;;12.20;94.62
70781;BME280;59514;48.810;2.134;2023-05-01T08:10:46;100433.41;;;11.99;95.38
70781;BME280;59514;48.810;2.134;2023-05-01T08:13:11;100425.44;;;12.16;94.60
70781;BME280;59514;48.810;2.134;2023-05-01T08:15:37;100428.72;;;12.29;93.80
70781;BME280;59514;48.810;2.134;2023-05-01T08:18:04;100437.13;;;11.98;95.00
70781;BME280;59514;48.810;2.134;2023-05-01T08:20:29;100436.78;;;11.83;96.03
70781;BME280;59514;48.810;2.134;2023-05-01T08:22:55;100439.78;;;11.75;96.93
70781;BME280;59514;48.810;2.134;2023-05-01T08:25:20;100445.22;;;11.57;98.06
70781;BME280;59514;48.810;2.134;2023-05-01T08:27:46;100442.00;;;11.78;97.99
70781;BME280;59514;48.810;2.134;2023-05-01T08:30:12;100443.66;;;11.79;97.11
70781;BME280;59514;48.810;2.134;2023-05-01T08:32:37;100443.84;;;11.66;98.41
70781;BME280;59514;48.810;2.134;2023-05-01T08:35:03;100450.31;;;11.76;98.39
70781;BME280;59514;48.810;2.134;2023-05-01T08:37:28;100442.56;;;11.68;97.99
70781;BME280;59514;48.810;2.134;2023-05-01T08:39:54;100442.19;;;11.65;98.36
70781;BME280;59514;48.810;2.134;2023-05-01T08:42:19;100445.03;;;11.70;97.71
70781;BME280;59514;48.810;2.134;2023-05-01T08:44:45;100449.22;;;11.66;98.62
70781;BME280;59514;48.810;2.134;2023-05-01T08:47:15;100455.34;;;11.73;97.90
70781;BME280;59514;48.810;2.134;2023-05-01T08:49:42;100452.41;;;11.74;98.83
70781;BME280;59514;48.810;2.134;2023-05-01T08:52:10;100450.56;;;11.86;97.32
70781;BME280;59514;48.810;2.134;2023-05-01T08:54:38;100461.00;;;11.83;98.36
70781;BME280;59514;48.810;2.134;2023-05-01T08:57:10;100463.09;;;11.81;97.62
70781;BME280;59514;48.810;2.134;2023-05-01T08:59:36;100463.88;;;11.81;98.42
70781;BME280;59514;48.810;2.134;2023-05-01T09:02:03;100466.81;;;11.80;98.45
70781;BME280;59514;48.810;2.134;2023-05-01T09:04:34;100469.38;;;11.75;99.36
70781;BME280;59514;48.810;2.134;2023-05-01T09:07:01;100473.38;;;11.84;100.00
70781;BME280;59514;48.810;2.134;2023-05-01T09:09:30;100467.38;;;11.70;100.00
70781;BME280;59514;48.810;2.134;2023-05-01T09:12:06;100470.31;;;11.69;99.83
70781;BME280;59514;48.810;2.134;2023-05-01T09:14:33;100473.94;;;11.74;99.94
70781;BME280;59514;48.810;2.134;2023-05-01T09:16:59;100477.00;;;11.60;100.00
70781;BME280;59514;48.810;2.134;2023-05-01T09:19:25;100485.97;;;11.72;100.00
70781;BME280;59514;48.810;2.134;2023-05-01T09:21:52;100473.09;;;11.74;100.00
70781;BME280;59514;48.810;2.134;2023-05-01T09:24:18;100476.66;;;11.86;99.21
70781;BME280;59514;48.810;2.134;2023-05-01T09:26:43;100476.78;;;11.91;99.95
70781;BME280;59514;48.810;2.134;2023-05-01T09:29:08;100483.69;;;11.87;100.00
70781;BME280;59514;48.810;2.134;2023-05-01T09:31:35;100473.09;;;11.74;100.00
70781;BME280;59514;48.810;2.134;2023-05-01T09:34:02;100485.38;;;11.70;100.00
70781;BME280;59514;48.810;2.134;2023-05-01T09:36:29;100481.78;;;11.76;100.00
70781;BME280;59514;48.810;2.134;2023-05-01T09:38:59;100491.00;;;11.68;100.00
70781;BME280;59514;48.810;2.134;2023-05-01T09:41:25;100485.78;;;11.85;100.00
70781;BME280;59514;48.810;2.134;2023-05-01T09:43:55;100485.47;;;12.04;100.00
70781;BME280;59514;48.810;2.134;2023-05-01T09:46:22;100486.03;;;11.95;100.00
70781;BME280;59514;48.810;2.134;2023-05-01T09:48:58;100483.47;;;12.00;100.00
70781;BME280;59514;48.810;2.134;2023-05-01T09:51:29;100486.75;;;12.02;100.00
70781;BME280;59514;48.810;2.134;2023-05-01T09:53:56;100488.63;;;12.13;99.65
70781;BME280;59514;48.810;2.134;2023-05-01T09:56:22;100492.16;;;12.13;99.56
70781;BME280;59514;48.810;2.134;2023-05-01T09:58:50;100491.00;;;12.44;97.93
70781;BME280;59514;48.810;2.134;2023-05-01T10:01:16;100483.28;;;12.59;96.46
70781;BME280;59514;48.810;2.134;2023-05-01T10:03:42;100485.97;;;12.59;96.09
70781;BME280;59514;48.810;2.134;2023-05-01T10:06:09;100488.31;;;12.33;97.99
70781;BME280;59514;48.810;2.134;2023-05-01T10:08:47;100490.44;;;12.42;97.58
70781;BME280;59514;48.810;2.134;2023-05-01T10:11:13;100488.19;;;12.62;97.27
70781;BME280;59514;48.810;2.134;2023-05-01T10:13:39;100486.91;;;12.53;97.94
70781;BME280;59514;48.810;2.134;2023-05-01T10:16:05;100489.25;;;12.27;98.56
70781;BME280;59514;48.810;2.134;2023-05-01T10:18:35;100476.47;;;12.34;98.24
70781;BME280;59514;48.810;2.134;2023-05-01T10:21:02;100481.66;;;12.58;98.64
70781;BME280;59514;48.810;2.134;2023-05-01T10:23:28;100484.09;;;12.71;97.88
70781;BME280;59514;48.810;2.134;2023-05-01T10:25:54;100483.84;;;12.84;96.48
70781;BME280;59514;48.810;2.134;2023-05-01T10:28:20;100477.34;;;12.97;95.56
70781;BME280;59514;48.810;2.134;2023-05-01T10:30:47;100475.72;;;13.08;95.82
70781;BME280;59514;48.810;2.134;2023-05-01T10:33:13;100472.97;;;13.59;93.46
70781;BME280;59514;48.810;2.134;2023-05-01T10:35:41;100476.94;;;13.84;89.60
70781;BME280;59514;48.810;2.134;2023-05-01T10:38:10;100480.22;;;14.03;88.75
70781;BME280;59514;48.810;2.134;2023-05-01T10:45:50;100469.63;;;15.06;86.39
70781;BME280;59514;48.810;2.134;2023-05-01T10:51:17;100472.72;;;14.38;89.87
70781;BME280;59514;48.810;2.134;2023-05-01T10:53:45;100466.81;;;14.25;87.96
70781;BME280;59514;48.810;2.134;2023-05-01T11:03:56;100461.81;;;14.50;87.42
70781;BME280;59514;48.810;2.134;2023-05-01T11:06:22;100465.44;;;14.55;87.70
70781;BME280;59514;48.810;2.134;2023-05-01T11:08:48;100466.75;;;14.75;86.93
70781;BME280;59514;48.810;2.134;2023-05-01T11:14:04;100453.31;;;15.71;81.38
70781;BME280;59514;48.810;2.134;2023-05-01T11:19:05;100449.19;;;16.27;77.17
70781;BME280;59514;48.810;2.134;2023-05-01T11:21:33;100455.50;;;16.84;74.50
70781;BME280;59514;48.810;2.134;2023-05-01T11:23:59;100447.78;;;16.56;77.08
70781;BME280;59514;48.810;2.134;2023-05-01T11:26:27;100457.09;;;16.33;76.54
70781;BME280;59514;48.810;2.134;2023-05-01T11:28:54;100440.44;;;16.52;75.32
70781;BME280;59514;48.810;2.134;2023-05-01T11:31:21;100433.25;;;16.77;77.08
70781;BME280;59514;48.810;2.134;2023-05-01T11:33:47;100443.81;;;16.37;75.34
70781;BME280;59514;48.810;2.134;2023-05-01T11:36:12;100446.00;;;15.98;77.38
70781;BME280;59514;48.810;2.134;2023-05-01T11:38:48;100447.13;;;15.76;77.35
70781;BME280;59514;48.810;2.134;2023-05-01T11:41:13;100450.19;;;15.31;79.29
70781;BME280;59514;48.810;2.134;2023-05-01T11:43:58;100449.16;;;15.37;78.60
70781;BME280;59514;48.810;2.134;2023-05-01T11:46:27;100440.47;;;15.13;81.79
70781;BME280;59514;48.810;2.134;2023-05-01T11:48:54;100441.00;;;14.89;86.91
70781;BME280;59514;48.810;2.134;2023-05-01T11:51:20;100443.00;;;14.38;86.41
70781;BME280;59514;48.810;2.134;2023-05-01T11:54:08;100444.09;;;14.37;87.78
70781;BME280;59514;48.810;2.134;2023-05-01T11:56:34;100450.84;;;14.56;89.47
70781;BME280;59514;48.810;2.134;2023-05-01T11:59:15;100451.03;;;14.33;92.54
70781;BME280;59514;48.810;2.134;2023-05-01T12:01:42;100461.91;;;14.38;90.66
70781;BME280;59514;48.810;2.134;2023-05-01T12:04:09;100458.56;;;14.69;88.91
70781;BME280;59514;48.810;2.134;2023-05-01T12:06:43;100464.53;;;14.72;93.91
70781;BME280;59514;48.810;2.134;2023-05-01T12:09:15;100468.38;;;14.76;86.21
70781;BME280;59514;48.810;2.134;2023-05-01T12:11:41;100449.28;;;15.04;90.51
70781;BME280;59514;48.810;2.134;2023-05-01T12:14:08;100453.22;;;14.91;89.34
70781;BME280;59514;48.810;2.134;2023-05-01T12:16:34;100455.00;;;15.07;87.97
70781;BME280;59514;48.810;2.134;2023-05-01T12:19:00;100454.38;;;15.22;90.06
70781;BME280;59514;48.810;2.134;2023-05-01T12:21:27;100465.78;;;14.81;86.76
70781;BME280;59514;48.810;2.134;2023-05-01T12:23:52;100462.09;;;14.70;87.83
70781;BME280;59514;48.810;2.134;2023-05-01T12:26:23;100468.88;;;14.34;89.69
70781;BME280;59514;48.810;2.134;2023-05-01T12:28:56;100452.91;;;14.00;90.09
70781;BME280;59514;48.810;2.134;2023-05-01T12:31:22;100458.28;;;14.16;91.07
70781;BME280;59514;48.810;2.134;2023-05-01T12:34:05;100458.19;;;14.61;90.39
70781;BME280;59514;48.810;2.134;2023-05-01T12:36:33;100454.56;;;14.94;87.68
70781;BME280;59514;48.810;2.134;2023-05-01T12:39:08;100463.31;;;15.22;82.43
70781;BME280;59514;48.810;2.134;2023-05-01T12:41:41;100449.72;;;15.61;79.75
70781;BME280;59514;48.810;2.134;2023-05-01T12:44:24;100440.19;;;16.16;77.99
70781;BME280;59514;48.810;2.134;2023-05-01T12:47:01;100442.88;;;16.16;76.57
70781;BME280;59514;48.810;2.134;2023-05-01T12:49:28;100443.84;;;15.47;77.77
70781;BME280;59514;48.810;2.134;2023-05-01T12:51:55;100445.75;;;15.73;78.87
70781;BME280;59514;48.810;2.134;2023-05-01T12:54:34;100460.81;;;15.64;79.64
70781;BME280;59514;48.810;2.134;2023-05-01T12:57:08;100452.03;;;15.52;73.91
70781;BME280;59514;48.810;2.134;2023-05-01T12:59:35;100445.03;;;15.83;75.83
70781;BME280;59514;48.810;2.134;2023-05-01T13:02:04;100465.13;;;16.18;70.46
70781;BME280;59514;48.810;2.134;2023-05-01T13:04:29;100445.03;;;16.51;72.25
70781;BME280;59514;48.810;2.134;2023-05-01T13:06:56;100463.75;;;16.53;71.85
70781;BME280;59514;48.810;2.134;2023-05-01T13:09:27;100454.84;;;16.20;69.17
70781;BME280;59514;48.810;2.134;2023-05-01T13:12:04;100460.78;;;15.91;68.39
70781;BME280;59514;48.810;2.134;2023-05-01T13:14:37;100452.25;;;15.72;68.38
70781;BME280;59514;48.810;2.134;2023-05-01T13:17:05;100467.47;;;15.78;68.62
70781;BME280;59514;48.810;2.134;2023-05-01T13:19:30;100471.41;;;15.97;67.85
70781;BME280;59514;48.810;2.134;2023-05-01T13:21:56;100466.38;;;15.79;68.24
70781;BME280;59514;48.810;2.134;2023-05-01T13:24:23;100472.44;;;16.55;66.03